Time;durP1;ratioP1;P1;durP2;ratioP2;P2;SDS_P1;SDS_P2;PMS_P1;PMS_P2;Temp;Humidity;BMP_temperature;BMP_pressure;BME280_temperature;BME280_humidity;BME280_pressure;Samples;Min_cycle;Max_cycle;Signal;HPM_P1;HPM_P2
2024/01/27 00:02:18;;;;;;;0.10;0.10;;;;;;;9.38;68.04;102212.94;7360859;19;20010;-63
2024/01/27 00:04:43;;;;;;;0.10;0.10;;;;;;;9.40;68.17;102226.84;7365429;19;20942;-63
2024/01/27 00:07:09;;;;;;;0.10;0.10;;;;;;;9.33;68.03;102222.47;7358734;19;20011;-64
2024/01/27 00:09:34;;;;;;;0.10;0.10;;;;;;;9.33;68.00;102225.06;7360689;19;20339;-63
2024/01/27 00:11:59;;;;;;;0.10;0.10;;;;;;;9.22;67.76;102211.06;7362312;19;20028;-63
2024/01/27 00:14:25;;;;;;;0.10;0.10;;;;;;;9.29;68.34;102233.72;7320764;19;20046;-63
2024/01/27 00:16:50;;;;;;;0.10;0.10;;;;;;;9.19;68.44;102221.50;7364307;19;20006;-63
2024/01/27 00:19:16;;;;;;;0.10;0.10;;;;;;;9.10;67.98;102204.03;7365680;19;20018;-63
2024/01/27 00:21:41;;;;;;;0.10;0.10;;;;;;;9.02;68.30;102193.56;7367488;19;20027;-63
2024/01/27 00:24:07;;;;;;;0.10;0.10;;;;;;;9.17;67.80;102231.00;7370668;19;20010;-63
2024/01/27 00:26:32;;;;;;;0.10;0.10;;;;;;;9.07;68.40;102220.53;7372675;19;20002;-63
2024/01/27 00:28:57;;;;;;;0.10;0.10;;;;;;;9.13;68.20;102231.88;7360307;19;20018;-63
2024/01/27 00:31:23;;;;;;;0.10;0.10;;;;;;;9.09;68.56;102231.84;7365296;19;20026;-63
2024/01/27 00:33:48;;;;;;;0.10;0.10;;;;;;;9.10;68.57;102217.94;7366307;19;20459;-63
2024/01/27 00:36:14;;;;;;;0.10;0.10;;;;;;;8.93;68.41;102185.69;7366567;19;20006;-63
2024/01/27 00:38:39;;;;;;;0.10;0.10;;;;;;;9.06;68.37;102207.47;7373943;19;20020;-63
2024/01/27 00:41:05;;;;;;;0.10;0.10;;;;;;;8.99;68.76;102203.09;7372566;19;20098;-63
2024/01/27 00:43:30;;;;;;;0.10;0.10;;;;;;;8.97;68.96;102191.75;7371410;19;20018;-64
2024/01/27 00:45:56;;;;;;;0.10;0.10;;;;;;;8.99;68.42;102203.97;7365058;19;20081;-63
2024/01/27 00:48:22;;;;;;;0.00;0.00;;;;;;;8.76;68.78;102163.81;7369385;19;20019;-63
2024/01/27 00:50:48;;;;;;;0.10;0.10;;;;;;;8.97;68.68;102213.50;7370514;19;20029;-63
2024/01/27 00:53:13;;;;;;;0.10;0.10;;;;;;;9.00;69.07;102205.69;7366308;19;20019;-63
2024/01/27 00:55:39;;;;;;;0.10;0.10;;;;;;;8.96;68.72;102175.25;7368113;19;20011;-63
2024/01/27 00:58:04;;;;;;;0.10;0.10;;;;;;;9.02;68.74;102188.34;7362213;19;20014;-63
2024/01/27 01:00:29;;;;;;;0.10;0.10;;;;;;;8.95;68.63;102175.25;7364585;19;20857;-63
2024/01/27 01:02:55;;;;;;;0.10;0.10;;;;;;;8.56;68.65;102109.84;7364360;19;20482;-63
2024/01/27 01:05:20;;;;;;;0.10;0.10;;;;;;;8.90;68.86;102156.97;7365257;19;20002;-63
2024/01/27 01:07:46;;;;;;;0.10;0.10;;;;;;;9.00;68.63;102169.22;7362762;19;20010;-63
2024/01/27 01:10:11;;;;;;;0.10;0.10;;;;;;;8.81;68.62;102128.25;7365789;19;20038;-63
2024/01/27 01:12:36;;;;;;;0.10;0.10;;;;;;;8.84;68.50;102130.91;7369229;19;20485;-63
2024/01/27 01:15:02;;;;;;;0.10;0.10;;;;;;;8.86;68.66;102144.78;7364283;19;20010;-63
2024/01/27 01:17:28;;;;;;;0.10;0.10;;;;;;;9.04;68.85;102165.78;7365769;19;20007;-63
2024/01/27 01:19:53;;;;;;;0.10;0.10;;;;;;;8.94;68.58;102143.13;7369515;19;20006;-63
2024/01/27 01:22:18;;;;;;;0.00;0.00;;;;;;;8.93;68.48;102161.38;7369364;19;20010;-64
2024/01/27 01:24:44;;;;;;;0.10;0.10;;;;;;;8.89;68.64;102139.63;7367128;19;20568;-63
2024/01/27 01:27:09;;;;;;;0.10;0.10;;;;;;;8.97;68.39;102153.59;7372588;19;20007;-64
2024/01/27 01:29:35;;;;;;;0.10;0.10;;;;;;;9.05;68.75;102157.09;7360348;19;20011;-63
2024/01/27 01:32:02;;;;;;;0.20;0.20;;;;;;;9.04;68.74;102154.50;7369103;19;20011;-63
2024/01/27 01:34:28;;;;;;;0.10;0.10;;;;;;;9.08;68.71;102162.34;7360072;19;20010;-63
2024/01/27 01:36:54;;;;;;;0.10;0.10;;;;;;;9.07;68.49;102144.97;7367576;19;20011;-63
2024/01/27 01:39:19;;;;;;;0.10;0.10;;;;;;;9.06;68.46;102138.00;7364750;19;19999;-63
2024/01/27 01:41:45;;;;;;;0.10;0.10;;;;;;;8.98;68.30;102134.47;7366648;19;20022;-63
2024/01/27 01:44:10;;;;;;;0.10;0.10;;;;;;;8.95;68.58;102118.81;7366402;19;20006;-63
2024/01/27 01:46:36;;;;;;;0.10;0.10;;;;;;;8.80;68.37;102092.66;7365129;19;20283;-63
2024/01/27 01:49:01;;;;;;;0.10;0.10;;;;;;;9.08;68.10;102130.19;7363298;19;20007;-63
2024/01/27 01:51:27;;;;;;;0.10;0.10;;;;;;;9.13;68.22;102127.63;7367467;19;20066;-63
2024/01/27 01:53:57;;;;;;;0.10;0.10;;;;;;;9.09;68.20;102117.16;7361951;19;20006;-63
2024/01/27 01:56:23;;;;;;;0.10;0.10;;;;;;;9.13;67.98;102138.06;7364584;19;20030;-63
2024/01/27 01:58:48;;;;;;;0.10;0.10;;;;;;;8.72;67.80;102060.50;7366126;19;20013;-63
2024/01/27 02:01:15;;;;;;;0.10;0.10;;;;;;;8.76;67.93;102049.22;7363654;19;20010;-63
2024/01/27 02:03:40;;;;;;;0.10;0.10;;;;;;;9.07;68.51;102113.69;7361565;19;20021;-63
2024/01/27 02:06:06;;;;;;;0.10;0.10;;;;;;;9.17;67.53;102116.34;7361654;19;20616;-63
2024/01/27 02:08:31;;;;;;;0.13;0.13;;;;;;;9.19;67.65;102128.53;7358205;19;20512;-63
2024/01/27 02:10:58;;;;;;;0.10;0.10;;;;;;;9.21;67.90;102125.91;7367227;19;20097;-63
2024/01/27 02:13:24;;;;;;;0.10;0.10;;;;;;;8.97;67.74;102079.72;7361429;19;20090;-63
2024/01/27 02:15:50;;;;;;;0.10;0.10;;;;;;;9.14;67.73;102098.09;7370836;19;20010;-63
2024/01/27 02:18:16;;;;;;;0.10;0.10;;;;;;;9.14;67.63;102111.13;7369914;19;20014;-63
2024/01/27 02:20:42;;;;;;;0.10;0.10;;;;;;;9.16;67.38;102112.00;7369312;19;20018;-63
2024/01/27 02:23:07;;;;;;;0.10;0.10;;;;;;;9.21;67.59;102120.72;7361092;19;20029;-63
2024/01/27 02:25:34;;;;;;;0.10;0.10;;;;;;;9.18;67.59;102116.38;7367273;19;20046;-63
2024/01/27 02:27:59;;;;;;;0.10;0.10;;;;;;;9.20;67.55;102122.44;7360869;19;20003;-63
2024/01/27 02:30:25;;;;;;;0.10;0.10;;;;;;;9.15;67.45;102110.25;7359949;19;20014;-63
2024/01/27 02:32:55;;;;;;;0.10;0.10;;;;;;;9.23;67.72;102119.00;7368614;19;20014;-63
2024/01/27 02:35:20;;;;;;;0.10;0.10;;;;;;;9.06;67.52;102095.44;7362986;19;20389;-63
2024/01/27 02:37:46;;;;;;;0.10;0.10;;;;;;;9.22;67.69;102127.66;7359501;19;20018;-63
2024/01/27 02:40:11;;;;;;;0.10;0.10;;;;;;;9.21;67.65;102131.13;7368229;19;20031;-63
2024/01/27 02:42:37;;;;;;;0.10;0.10;;;;;;;9.19;67.09;102117.22;7364660;19;20038;-64
2024/01/27 02:45:03;;;;;;;0.10;0.10;;;;;;;9.23;67.38;102119.88;7362577;19;20532;-63
2024/01/27 02:47:28;;;;;;;0.10;0.10;;;;;;;9.22;67.48;102118.09;7367582;19;20845;-63
2024/01/27 02:49:54;;;;;;;0.10;0.10;;;;;;;9.21;67.32;102110.28;7363767;19;20090;-63
2024/01/27 02:52:19;;;;;;;0.10;0.10;;;;;;;9.10;67.33;102092.84;7365799;19;20017;-63
2024/01/27 02:54:45;;;;;;;0.03;0.03;;;;;;;9.11;67.11;102080.69;7360826;19;20010;-63
2024/01/27 02:57:10;;;;;;;0.10;0.10;;;;;;;9.26;67.03;102106.84;7364547;19;20018;-64
2024/01/27 02:59:38;;;;;;;0.20;0.20;;;;;;;9.24;66.88;102105.09;7362069;19;20707;-64
2024/01/27 03:02:04;;;;;;;;;;;;;;;9.32;68.12;102100.78;7366643;19;20029;-63
2024/01/27 03:04:29;;;;;;;0.10;0.10;;;;;;;9.10;66.94;102061.56;7369350;19;20327;-63
2024/01/27 03:06:54;;;;;;;0.10;0.10;;;;;;;9.19;66.75;102067.72;7370850;19;20010;-63
2024/01/27 03:09:20;;;;;;;0.10;0.10;;;;;;;9.30;67.07;102084.25;7369257;19;20022;-63
2024/01/27 03:11:45;;;;;;;0.10;0.10;;;;;;;9.23;66.64;102072.09;7364348;19;20006;-63
2024/01/27 03:14:11;;;;;;;0.10;0.10;;;;;;;9.29;66.52;102083.41;7364201;19;20010;-63
2024/01/27 03:16:36;;;;;;;0.10;0.10;;;;;;;9.30;66.77;102085.13;7359413;19;20037;-63
2024/01/27 03:19:02;;;;;;;0.10;0.10;;;;;;;9.29;67.03;102106.00;7366053;19;20011;-63
2024/01/27 03:21:27;;;;;;;0.05;0.05;;;;;;;9.32;66.87;102078.19;7360049;19;20017;-63
2024/01/27 03:23:53;;;;;;;0.10;0.10;;;;;;;9.21;66.66;102052.94;7367472;19;20031;-63
2024/01/27 03:26:18;;;;;;;0.10;0.10;;;;;;;9.18;66.38;102060.75;7361885;19;20033;-63
2024/01/27 03:28:43;;;;;;;0.10;0.10;;;;;;;9.34;66.67;102080.81;7364178;19;21057;-63
2024/01/27 03:31:09;;;;;;;0.10;0.10;;;;;;;9.23;66.55;102056.44;7365994;19;20006;-63
2024/01/27 03:33:34;;;;;;;0.10;0.10;;;;;;;9.35;66.78;102078.22;7363650;19;20041;-63
2024/01/27 03:36:00;;;;;;;0.10;0.10;;;;;;;9.18;66.28;102037.31;7364476;19;20446;-63
2024/01/27 03:38:25;;;;;;;0.10;0.10;;;;;;;9.22;66.74;102049.47;7359638;19;20021;-63
2024/01/27 03:40:50;;;;;;;0.10;0.10;;;;;;;9.39;66.59;102079.09;7365992;19;20003;-63
2024/01/27 03:43:16;;;;;;;0.10;0.10;;;;;;;9.39;66.37;102062.59;7361161;19;20018;-63
2024/01/27 03:45:41;;;;;;;0.10;0.10;;;;;;;9.44;66.85;102069.56;7362871;19;20007;-63
2024/01/27 03:48:07;;;;;;;0.10;0.10;;;;;;;9.48;67.01;102068.72;7363347;19;20040;-63
2024/01/27 03:50:32;;;;;;;0.10;0.10;;;;;;;9.48;66.60;102068.72;7368130;19;20003;-63
2024/01/27 03:52:58;;;;;;;0.15;0.15;;;;;;;9.45;66.68;102057.41;7360753;19;20014;-63
2024/01/27 03:55:23;;;;;;;0.20;0.20;;;;;;;9.48;66.66;102055.69;7362154;19;20007;-64
2024/01/27 03:57:49;;;;;;;0.10;0.10;;;;;;;9.48;66.70;102055.69;7358566;19;21002;-63
2024/01/27 04:00:14;;;;;;;0.10;0.10;;;;;;;9.50;66.70;102045.25;7356425;19;20031;-63
2024/01/27 04:02:40;;;;;;;0.10;0.10;;;;;;;9.42;66.20;102042.59;7362265;19;20010;-63
2024/01/27 04:05:06;;;;;;;0.10;0.10;;;;;;;9.54;66.79;102053.09;7366158;19;20011;-63
2024/01/27 04:07:31;;;;;;;0.10;0.10;;;;;;;9.52;66.42;102057.41;7358324;19;20061;-63
2024/01/27 04:09:57;;;;;;;0.10;0.10;;;;;;;9.39;66.78;102060.84;7361781;19;20081;-63
2024/01/27 04:12:22;;;;;;;0.10;0.10;;;;;;;9.56;66.75;102072.19;7366768;19;20010;-63
2024/01/27 04:14:48;;;;;;;0.10;0.10;;;;;;;9.56;66.16;102072.19;7364753;19;20011;-63
2024/01/27 04:17:13;;;;;;;0.10;0.10;;;;;;;9.57;66.78;102079.16;7359417;19;20022;-63
2024/01/27 04:19:38;;;;;;;0.03;0.03;;;;;;;9.49;66.06;102065.25;7338251;19;20006;-63
2024/01/27 04:22:04;;;;;;;0.10;0.10;;;;;;;9.57;66.17;102068.72;7362499;19;20019;-63
2024/01/27 04:24:29;;;;;;;0.10;0.10;;;;;;;9.32;66.38;102018.22;7361812;19;20006;-64
2024/01/27 04:26:55;;;;;;;0.20;0.20;;;;;;;9.58;66.17;102060.06;7366889;19;20466;-63
2024/01/27 04:29:20;;;;;;;0.10;0.10;;;;;;;9.59;66.54;102067.00;7357935;19;20007;-63
2024/01/27 04:31:45;;;;;;;0.10;0.10;;;;;;;9.58;66.48;102049.63;7361830;19;20018;-63
2024/01/27 04:34:11;;;;;;;0.10;0.10;;;;;;;9.46;66.27;102022.63;7355502;19;20006;-63
2024/01/27 04:36:36;;;;;;;0.10;0.10;;;;;;;9.58;66.04;102052.22;7361919;19;20018;-63
2024/01/27 04:39:02;;;;;;;0.10;0.10;;;;;;;9.58;66.16;102040.94;7362413;19;20398;-63
2024/01/27 04:41:28;;;;;;;0.10;0.10;;;;;;;9.64;66.28;102055.72;7365406;19;20774;-63
2024/01/27 04:43:55;;;;;;;0.10;0.10;;;;;;;9.64;66.16;102053.13;7364517;19;20006;-64
2024/01/27 04:46:20;;;;;;;0.10;0.10;;;;;;;9.45;66.14;102021.75;7363370;19;20019;-63
2024/01/27 04:48:46;;;;;;;0.20;0.20;;;;;;;9.65;65.75;102044.41;7357739;19;20506;-63
2024/01/27 04:51:11;;;;;;;0.10;0.10;;;;;;;9.51;65.69;102021.78;7359889;19;20010;-63
2024/01/27 04:53:37;;;;;;;0.10;0.10;;;;;;;9.49;65.88;102020.03;7362669;19;20017;-63
2024/01/27 04:56:02;;;;;;;0.10;0.10;;;;;;;9.52;65.92;102023.50;7364816;19;20070;-63
2024/01/27 04:58:28;;;;;;;0.20;0.20;;;;;;;9.57;66.43;102031.34;7363703;19;20017;-63
2024/01/27 05:00:53;;;;;;;0.10;0.10;;;;;;;9.51;65.60;102032.19;7362144;19;20025;-63
2024/01/27 05:03:18;;;;;;;0.10;0.10;;;;;;;9.65;66.24;102044.41;7358346;19;20003;-63
2024/01/27 05:05:44;;;;;;;0.10;0.10;;;;;;;9.69;66.33;102072.25;7371450;19;20014;-63
2024/01/27 05:08:09;;;;;;;0.10;0.10;;;;;;;9.65;66.39;102049.63;7366805;19;20792;-64
2024/01/27 05:10:36;;;;;;;0.00;0.00;;;;;;;9.53;65.98;102038.31;7370853;19;20015;-63
2024/01/27 05:13:01;;;;;;;0.10;0.10;;;;;;;9.69;65.97;102067.03;7369152;19;20354;-63
2024/01/27 05:15:27;;;;;;;0.10;0.10;;;;;;;9.65;66.26;102060.94;7374723;19;20017;-63
2024/01/27 05:17:52;;;;;;;0.10;0.10;;;;;;;9.69;65.83;102057.47;7367379;19;20327;-64
2024/01/27 05:20:19;;;;;;;0.10;0.10;;;;;;;9.69;65.86;102062.69;7368621;19;20045;-63
2024/01/27 05:22:44;;;;;;;0.10;0.10;;;;;;;9.68;65.91;102060.97;7372391;19;20962;-63
2024/01/27 05:25:10;;;;;;;0.10;0.10;;;;;;;9.68;65.83;102054.84;7373456;19;20011;-63
2024/01/27 05:27:38;;;;;;;0.10;0.10;;;;;;;9.67;66.19;102047.88;7368743;19;20010;-63
2024/01/27 05:30:06;;;;;;;0.10;0.10;;;;;;;9.68;66.17;102053.13;7357262;19;20022;-63
2024/01/27 05:32:31;;;;;;;0.10;0.10;;;;;;;9.59;65.93;102040.94;7371017;19;20659;-63
2024/01/27 05:34:57;;;;;;;0.10;0.10;;;;;;;9.58;66.00;102022.69;7365272;19;20014;-63
2024/01/27 05:37:22;;;;;;;0.10;0.10;;;;;;;9.67;66.04;102037.47;7369608;19;20886;-63
2024/01/27 05:39:48;;;;;;;0.10;0.10;;;;;;;9.64;66.30;102042.69;7365291;19;20011;-63
2024/01/27 05:42:13;;;;;;;0.10;0.10;;;;;;;9.70;66.17;102047.91;7371273;19;20010;-63
2024/01/27 05:44:40;;;;;;;0.10;0.10;;;;;;;9.51;65.94;102032.19;7368365;19;20024;-63
2024/01/27 05:47:06;;;;;;;0.10;0.10;;;;;;;9.64;66.43;102054.00;7367248;19;20017;-63
2024/01/27 05:49:31;;;;;;;0.10;0.10;;;;;;;9.69;66.00;102041.81;7368369;19;21328;-64
2024/01/27 05:51:57;;;;;;;0.10;0.10;;;;;;;9.69;66.04;102040.97;7365976;19;20036;-63
2024/01/27 05:54:22;;;;;;;0.10;0.10;;;;;;;9.66;66.50;102031.38;7369950;19;20049;-63
2024/01/27 05:56:48;;;;;;;0.10;0.10;;;;;;;9.73;65.83;102042.69;7368436;19;20006;-63
2024/01/27 05:59:13;;;;;;;0.08;0.08;;;;;;;9.75;66.18;102061.84;7362827;19;20105;-63
2024/01/27 06:01:40;;;;;;;0.10;0.10;;;;;;;9.75;66.07;102039.22;7369450;19;20011;-63
2024/01/27 06:04:06;;;;;;;0.10;0.10;;;;;;;9.62;66.19;102019.19;7366282;19;20021;-64
2024/01/27 06:06:32;;;;;;;0.10;0.10;;;;;;;9.65;66.06;102018.34;7369043;19;20074;-63
2024/01/27 06:08:57;;;;;;;0.10;0.10;;;;;;;9.75;66.22;102034.00;7350943;19;20486;-63
2024/01/27 06:11:24;;;;;;;0.10;0.10;;;;;;;9.71;66.14;102032.25;7366327;19;20010;-63
2024/01/27 06:13:49;;;;;;;0.10;0.10;;;;;;;9.78;65.99;102044.47;7339271;19;20014;-63
2024/01/27 06:16:18;;;;;;;0.10;0.10;;;;;;;9.78;65.72;102052.28;7364373;19;20742;-63
2024/01/27 06:18:44;;;;;;;0.10;0.10;;;;;;;9.75;66.21;102030.53;7368654;19;20018;-63
2024/01/27 06:21:10;;;;;;;0.20;0.20;;;;;;;9.78;66.13;102023.59;7371818;19;20029;-63
2024/01/27 06:23:35;;;;;;;0.10;0.10;;;;;;;9.78;65.85;102033.13;7371476;19;20027;-63
2024/01/27 06:26:08;;;;;;;0.10;0.10;;;;;;;9.69;66.28;102014.88;7373718;19;20015;-64
2024/01/27 06:28:34;;;;;;;0.10;0.10;;;;;;;9.76;65.69;102029.66;7359812;19;20018;-64
2024/01/27 06:31:03;;;;;;;0.20;0.20;;;;;;;9.59;65.50;101998.34;7368859;19;20023;-63
2024/01/27 06:33:28;;;;;;;0.10;0.10;;;;;;;9.74;65.56;102020.97;7366798;19;20450;-63
2024/01/27 06:35:54;;;;;;;0.10;0.10;;;;;;;9.79;65.55;102029.69;7360739;19;20014;-63
2024/01/27 06:38:19;;;;;;;0.10;0.10;;;;;;;9.78;65.83;102020.09;7367112;19;20034;-63
2024/01/27 06:40:44;;;;;;;0.10;0.10;;;;;;;9.74;66.19;102003.59;7363545;19;20006;-63
2024/01/27 06:43:13;;;;;;;0.10;0.10;;;;;;;9.83;65.78;102023.56;7367724;19;20014;-63
2024/01/27 06:45:38;;;;;;;0.10;0.10;;;;;;;9.77;66.09;102014.00;7368988;19;20024;-63
2024/01/27 06:48:05;;;;;;;0.10;0.10;;;;;;;9.79;65.75;102008.81;7362727;19;20015;-63
2024/01/27 06:50:30;;;;;;;0.10;0.10;;;;;;;9.80;65.27;102018.38;7371049;19;20014;-63
2024/01/27 06:52:55;;;;;;;0.10;0.10;;;;;;;9.76;65.93;102011.41;7364624;19;20416;-63
2024/01/27 06:55:21;;;;;;;0.10;0.10;;;;;;;9.77;65.94;102013.13;7363286;19;20743;-63
2024/01/27 06:57:46;;;;;;;0.10;0.10;;;;;;;9.77;65.70;101997.47;7361633;19;20014;-63
2024/01/27 07:00:14;;;;;;;0.10;0.10;;;;;;;9.84;65.55;102020.13;7366394;19;20012;-63
2024/01/27 07:02:41;;;;;;;0.10;0.10;;;;;;;9.82;65.67;102012.28;7366642;19;20014;-63
2024/01/27 07:05:07;;;;;;;;;;;;;;;9.87;66.53;102009.66;7365504;19;20463;-63
2024/01/27 07:07:33;;;;;;;0.10;0.10;;;;;;;9.84;65.55;102012.28;7359260;19;19935;-63
2024/01/27 07:09:58;;;;;;;0.10;0.10;;;;;;;9.78;65.32;102005.34;7366472;19;20078;-63
2024/01/27 07:12:24;;;;;;;0.10;0.10;;;;;;;9.78;65.91;102000.13;7360361;19;20011;-63
2024/01/27 07:14:51;;;;;;;0.10;0.10;;;;;;;9.83;65.59;102013.13;7363055;19;20101;-63
2024/01/27 07:17:16;;;;;;;0.10;0.10;;;;;;;9.78;65.64;102007.94;7366541;19;20014;-63
2024/01/27 07:19:42;;;;;;;0.10;0.10;;;;;;;9.78;65.60;102014.88;7364487;19;20642;-63
2024/01/27 07:22:08;;;;;;;0.10;0.10;;;;;;;9.72;65.85;101996.59;7360250;19;20010;-63
2024/01/27 07:24:33;;;;;;;0.10;0.10;;;;;;;9.74;65.82;102006.19;7364405;19;20017;-63
2024/01/27 07:27:03;;;;;;;0.17;0.17;;;;;;;9.82;66.06;102003.56;7365011;19;20011;-64
2024/01/27 07:29:28;;;;;;;0.10;0.10;;;;;;;9.42;65.51;101951.34;7356989;19;21585;-63
2024/01/27 07:31:54;;;;;;;0.13;0.13;;;;;;;9.76;65.35;102009.66;7360551;19;20089;-63
2024/01/27 07:34:19;;;;;;;0.10;0.10;;;;;;;9.72;65.60;102009.66;7364745;19;20078;-63
2024/01/27 07:36:45;;;;;;;0.10;0.10;;;;;;;9.63;65.72;101994.88;7364803;19;20006;-63
2024/01/27 07:39:11;;;;;;;0.10;0.10;;;;;;;9.75;65.55;102014.88;7363242;19;20030;-63
2024/01/27 07:41:36;;;;;;;0.10;0.10;;;;;;;9.71;65.34;102002.69;7363333;19;20002;-63
2024/01/27 07:44:13;;;;;;;0.10;0.10;;;;;;;9.70;65.52;101998.34;7365876;19;20022;-63
2024/01/27 07:46:40;;;;;;;0.10;0.10;;;;;;;9.70;65.76;102004.44;7360909;19;20046;-63
2024/01/27 07:49:08;;;;;;;0.10;0.10;;;;;;;9.72;66.00;102014.88;7366643;19;20010;-63
2024/01/27 07:51:34;;;;;;;0.10;0.10;;;;;;;9.70;66.15;102008.78;7361129;19;20425;-63
2024/01/27 07:54:00;;;;;;;0.10;0.10;;;;;;;9.55;65.54;101992.22;7364068;19;20074;-63
2024/01/27 07:56:26;;;;;;;0.20;0.20;;;;;;;9.68;66.02;102018.31;7369068;19;20018;-63
2024/01/27 07:58:51;;;;;;;0.10;0.10;;;;;;;9.68;66.01;102003.56;7369503;19;20477;-63
2024/01/27 08:01:18;;;;;;;0.10;0.10;;;;;;;9.69;66.16;102020.09;7358299;19;19999;-63
2024/01/27 08:03:43;;;;;;;0.10;0.10;;;;;;;9.68;65.85;102007.91;7363628;19;20015;-63
2024/01/27 08:06:16;;;;;;;0.00;0.00;;;;;;;9.16;66.27;101906.09;7365293;19;20013;-63
2024/01/27 08:08:44;;;;;;;0.10;0.10;;;;;;;9.49;66.15;101971.38;7361942;19;20054;-63
2024/01/27 08:11:10;;;;;;;0.10;0.10;;;;;;;9.69;66.02;101994.00;7365009;19;20417;-63
2024/01/27 08:13:35;;;;;;;0.10;0.10;;;;;;;9.70;66.28;101995.75;7362412;19;20002;-63
2024/01/27 08:16:01;;;;;;;0.10;0.10;;;;;;;9.58;66.21;101960.97;7365085;19;20017;-63
2024/01/27 08:18:26;;;;;;;0.13;0.13;;;;;;;9.69;66.44;101980.97;7363911;19;20017;-63
2024/01/27 08:20:51;;;;;;;0.10;0.10;;;;;;;9.57;66.65;101964.41;7361676;19;20015;-63
2024/01/27 08:23:17;;;;;;;0.10;0.10;;;;;;;9.59;66.60;101962.69;7354732;19;20010;-63
2024/01/27 08:25:45;;;;;;;0.10;0.10;;;;;;;9.67;66.19;101969.66;7363878;19;20324;-63
2024/01/27 08:28:10;;;;;;;0.10;0.10;;;;;;;9.73;66.51;101975.75;7360792;19;20617;-63
2024/01/27 08:30:37;;;;;;;0.10;0.10;;;;;;;9.64;66.14;101951.41;7356338;19;20015;-63
2024/01/27 08:33:03;;;;;;;0.10;0.10;;;;;;;9.76;66.17;101985.31;7361672;19;20044;-63
2024/01/27 08:35:28;;;;;;;0.10;0.10;;;;;;;9.73;66.42;101960.09;7361167;19;20424;-63
2024/01/27 08:37:54;;;;;;;0.10;0.10;;;;;;;9.38;66.39;101893.97;7362231;19;20018;-63
2024/01/27 08:40:19;;;;;;;0.13;0.13;;;;;;;9.54;66.67;101917.47;7368432;19;20465;-63
2024/01/27 08:42:45;;;;;;;0.10;0.10;;;;;;;9.76;66.41;101954.88;7368120;19;20010;-63
2024/01/27 08:45:10;;;;;;;0.10;0.10;;;;;;;9.78;66.35;101960.97;7369454;19;20010;-63
2024/01/27 08:47:36;;;;;;;0.10;0.10;;;;;;;9.81;66.60;101953.13;7365280;19;20018;-63
2024/01/27 08:50:01;;;;;;;0.10;0.10;;;;;;;9.73;66.17;101925.31;7347620;19;20010;-63
2024/01/27 08:52:27;;;;;;;0.13;0.13;;;;;;;9.75;66.17;101936.63;7365460;19;20093;-63
2024/01/27 08:54:52;;;;;;;0.10;0.10;;;;;;;9.85;66.55;101946.19;7358758;19;20099;-63
2024/01/27 08:57:18;;;;;;;0.10;0.10;;;;;;;9.84;66.34;101934.88;7354728;19;20890;-64
2024/01/27 08:59:43;;;;;;;0.10;0.10;;;;;;;9.88;66.38;101933.13;7367049;19;20398;-63
2024/01/27 09:02:08;;;;;;;0.15;0.15;;;;;;;9.95;66.32;101953.16;7368883;19;20014;-63
2024/01/27 09:04:34;;;;;;;0.10;0.10;;;;;;;9.85;66.03;101907.06;7368124;19;20010;-63
2024/01/27 09:06:59;;;;;;;0.10;0.10;;;;;;;9.93;66.48;101926.16;7368236;19;20014;-63
2024/01/27 09:09:26;;;;;;;0.10;0.10;;;;;;;9.83;66.26;101898.34;7372202;19;20597;-63
2024/01/27 09:11:51;;;;;;;0.10;0.10;;;;;;;10.04;66.27;101929.66;7374664;19;20386;-63
2024/01/27 09:14:17;;;;;;;0.10;0.10;;;;;;;9.99;66.28;101914.88;7365006;19;20002;-63
2024/01/27 09:16:42;;;;;;;0.10;0.10;;;;;;;9.95;65.99;101895.75;7368741;19;20015;-63
2024/01/27 09:19:08;;;;;;;0.08;0.08;;;;;;;10.13;66.32;101919.19;7368477;19;20014;-63
2024/01/27 09:21:33;;;;;;;0.10;0.10;;;;;;;10.14;65.74;101918.34;7369665;19;20015;-63
2024/01/27 09:24:01;;;;;;;0.10;0.10;;;;;;;10.22;65.99;101912.22;7365746;19;20014;-63
2024/01/27 09:26:26;;;;;;;0.10;0.10;;;;;;;10.21;66.33;101894.84;7366286;19;20023;-63
2024/01/27 09:28:54;;;;;;;0.10;0.10;;;;;;;10.27;65.93;101900.94;7370221;19;20416;-63
2024/01/27 09:31:23;;;;;;;0.20;0.20;;;;;;;10.17;66.01;101887.88;7362770;19;20112;-63
2024/01/27 09:33:53;;;;;;;0.10;0.10;;;;;;;10.30;66.17;101910.53;7364288;19;20525;-63
2024/01/27 09:36:19;;;;;;;0.20;0.20;;;;;;;10.23;65.78;101887.84;7367949;19;20061;-63
2024/01/27 09:38:45;;;;;;;0.10;0.10;;;;;;;10.39;66.10;101918.31;7361237;19;20600;-64
2024/01/27 09:41:13;;;;;;;0.10;0.10;;;;;;;10.43;65.72;101914.81;7366106;19;20003;-63
2024/01/27 09:43:44;;;;;;;0.10;0.10;;;;;;;10.48;66.15;101914.81;7366151;19;20028;-63
2024/01/27 09:46:10;;;;;;;0.05;0.05;;;;;;;10.49;65.81;101922.66;7358374;19;20007;-63
2024/01/27 09:48:36;;;;;;;0.10;0.10;;;;;;;10.47;65.91;101900.88;7369595;19;20021;-63
2024/01/27 09:51:03;;;;;;;0.10;0.10;;;;;;;10.50;65.86;101916.56;7363667;19;19999;-63
2024/01/27 09:53:29;;;;;;;0.10;0.10;;;;;;;10.58;66.01;101917.38;7366904;19;20026;-63
2024/01/27 09:55:58;;;;;;;0.13;0.13;;;;;;;10.52;66.21;101901.75;7365049;19;20003;-63
2024/01/27 09:58:27;;;;;;;0.10;0.10;;;;;;;10.59;66.07;101895.63;7366879;19;20018;-63
2024/01/27 10:00:55;;;;;;;0.10;0.10;;;;;;;10.69;66.08;101906.03;7366119;19;20018;-63
2024/01/27 10:03:24;;;;;;;0.10;0.10;;;;;;;10.54;66.07;101886.94;7366034;19;20870;-63
2024/01/27 10:05:52;;;;;;;0.10;0.10;;;;;;;10.77;65.66;101919.94;7364709;19;20006;-63
2024/01/27 10:08:18;;;;;;;0.10;0.10;;;;;;;10.79;65.87;101931.25;7363841;19;20385;-63
2024/01/27 10:10:43;;;;;;;0.20;0.20;;;;;;;10.81;65.95;101929.50;7361612;19;20002;-63
2024/01/27 10:13:13;;;;;;;0.10;0.10;;;;;;;10.90;65.93;101950.38;7352239;19;20036;-63
2024/01/27 10:15:39;;;;;;;0.10;0.10;;;;;;;10.91;65.34;101942.53;7359690;19;21183;-63
2024/01/27 10:18:08;;;;;;;0.10;0.10;;;;;;;10.92;65.65;101943.41;7362302;19;20018;-63
2024/01/27 10:20:34;;;;;;;0.10;0.10;;;;;;;10.93;66.04;101934.69;7361944;19;20014;-63
2024/01/27 10:23:11;;;;;;;0.10;0.10;;;;;;;10.97;65.70;101915.50;7362498;19;20013;-63
2024/01/27 10:25:43;;;;;;;0.10;0.10;;;;;;;10.99;65.71;101921.56;7357890;19;20029;-63
2024/01/27 10:28:09;;;;;;;0.20;0.20;;;;;;;11.18;65.23;101944.13;7365099;19;20465;-63
2024/01/27 10:30:34;;;;;;;0.10;0.10;;;;;;;11.25;65.50;101936.25;7355625;19;20018;-63
2024/01/27 10:33:00;;;;;;;0.13;0.13;;;;;;;11.31;65.00;101934.50;7360683;19;20018;-63
2024/01/27 10:35:26;;;;;;;0.10;0.10;;;;;;;11.30;65.53;101918.78;7355206;19;20473;-63
2024/01/27 10:37:53;;;;;;;0.10;0.10;;;;;;;11.50;65.47;101922.13;7361104;19;20615;-63
2024/01/27 10:40:19;;;;;;;0.10;0.10;;;;;;;11.56;65.10;101942.19;7362393;19;20096;-63
2024/01/27 10:42:45;;;;;;;0.10;0.10;;;;;;;11.51;64.92;101913.44;7362186;19;20073;-63
2024/01/27 10:45:12;;;;;;;0.10;0.10;;;;;;;11.66;64.39;101942.09;7356204;19;20010;-63
2024/01/27 10:47:39;;;;;;;0.10;0.10;;;;;;;11.72;64.24;101940.31;7358195;19;20101;-63
2024/01/27 10:50:09;;;;;;;0.15;0.15;;;;;;;11.82;64.58;101955.09;7359848;19;20876;-63
2024/01/27 10:52:38;;;;;;;0.10;0.10;;;;;;;11.86;64.27;101946.31;7361209;19;20116;-63
2024/01/27 10:55:07;;;;;;;0.20;0.20;;;;;;;11.88;63.59;101945.44;7360779;19;20023;-63
2024/01/27 10:57:36;;;;;;;0.10;0.10;;;;;;;11.95;63.54;101941.03;7362940;19;20006;-63
2024/01/27 11:00:03;;;;;;;0.10;0.10;;;;;;;11.97;63.31;101931.44;7364282;19;20045;-63
2024/01/27 11:02:32;;;;;;;;;;;;;;;12.08;65.54;101911.25;7360932;19;20018;-63
2024/01/27 11:05:00;;;;;;;0.10;0.10;;;;;;;12.07;63.34;101904.28;7360250;19;19919;-63
2024/01/27 11:07:26;;;;;;;0.17;0.17;;;;;;;12.10;63.30;101909.47;7360692;19;20022;-63
2024/01/27 11:09:52;;;;;;;0.13;0.13;;;;;;;12.08;63.29;101903.38;7365125;19;20006;-63
2024/01/27 11:12:19;;;;;;;0.10;0.10;;;;;;;12.18;63.48;101912.03;7359521;19;20543;-63
2024/01/27 11:14:46;;;;;;;0.10;0.10;;;;;;;12.05;63.43;101874.59;7362110;19;20015;-63
2024/01/27 11:17:12;;;;;;;0.10;0.10;;;;;;;12.13;63.17;101875.41;7354151;19;20011;-63
2024/01/27 11:19:39;;;;;;;0.10;0.10;;;;;;;12.29;63.20;101899.69;7362359;19;20544;-63
2024/01/27 11:22:05;;;;;;;;;;;;;;;12.35;64.72;101894.38;7360918;19;20002;-63
2024/01/27 11:24:31;;;;;;;0.20;0.20;;;;;;;12.17;63.24;101864.03;7361367;19;19937;-63
2024/01/27 11:27:15;;;;;;;0.10;0.10;;;;;;;12.38;63.56;101893.47;7360023;19;20415;-63